sensor_id;sensor_type;location;lat;lon;timestamp;P1;durP1;ratioP1;P2;durP2;ratioP2
14326;SDS011;7247;53.330;-1.180;2023-07-28T00:00:43;7.17;;;4.90;;
14326;SDS011;7247;53.330;-1.180;2023-07-28T00:03:10;6.47;;;5.27;;
14326;SDS011;7247;53.330;-1.180;2023-07-28T00:05:36;6.80;;;4.97;;
14326;SDS011;7247;53.330;-1.180;2023-07-28T00:08:03;6.33;;;5.33;;
14326;SDS011;7247;53.330;-1.180;2023-07-28T00:10:29;6.77;;;5.77;;
14326;SDS011;7247;53.330;-1.180;2023-07-28T00:12:56;8.10;;;5.90;;
14326;SDS011;7247;53.330;-1.180;2023-07-28T00:15:22;5.87;;;5.30;;
14326;SDS011;7247;53.330;-1.180;2023-07-28T00:17:50;7.47;;;5.20;;
14326;SDS011;7247;53.330;-1.180;2023-07-28T00:20:17;7.47;;;5.03;;
14326;SDS011;7247;53.330;-1.180;2023-07-28T00:22:43;5.57;;;4.97;;
14326;SDS011;7247;53.330;-1.180;2023-07-28T00:25:10;6.40;;;4.50;;
14326;SDS011;7247;53.330;-1.180;2023-07-28T00:27:36;5.43;;;4.93;;
14326;SDS011;7247;53.330;-1.180;2023-07-28T00:30:03;5.63;;;4.57;;
14326;SDS011;7247;53.330;-1.180;2023-07-28T00:32:29;7.07;;;4.60;;
14326;SDS011;7247;53.330;-1.180;2023-07-28T00:34:57;7.93;;;4.33;;
14326;SDS011;7247;53.330;-1.180;2023-07-28T00:37:23;6.83;;;4.70;;
14326;SDS011;7247;53.330;-1.180;2023-07-28T00:39:50;7.77;;;5.00;;
14326;SDS011;7247;53.330;-1.180;2023-07-28T00:42:16;5.10;;;4.60;;
14326;SDS011;7247;53.330;-1.180;2023-07-28T00:44:43;8.27;;;5.57;;
14326;SDS011;7247;53.330;-1.180;2023-07-28T00:47:09;5.57;;;4.93;;
14326;SDS011;7247;53.330;-1.180;2023-07-28T00:49:36;8.53;;;4.40;;
14326;SDS011;7247;53.330;-1.180;2023-07-28T00:52:04;6.00;;;4.80;;
14326;SDS011;7247;53.330;-1.180;2023-07-28T00:54:32;5.10;;;4.60;;
14326;SDS011;7247;53.330;-1.180;2023-07-28T00:56:58;6.77;;;4.70;;
14326;SDS011;7247;53.330;-1.180;2023-07-28T00:59:25;8.93;;;4.73;;
14326;SDS011;7247;53.330;-1.180;2023-07-28T01:01:52;4.53;;;4.13;;
14326;SDS011;7247;53.330;-1.180;2023-07-28T01:04:18;5.20;;;4.00;;
14326;SDS011;7247;53.330;-1.180;2023-07-28T01:06:47;7.13;;;4.20;;
14326;SDS011;7247;53.330;-1.180;2023-07-28T01:09:18;7.80;;;4.73;;
14326;SDS011;7247;53.330;-1.180;2023-07-28T01:11:53;6.40;;;4.00;;
14326;SDS011;7247;53.330;-1.180;2023-07-28T01:14:19;6.83;;;3.90;;
14326;SDS011;7247;53.330;-1.180;2023-07-28T01:16:46;9.80;;;5.70;;
14326;SDS011;7247;53.330;-1.180;2023-07-28T01:19:12;11.93;;;8.57;;
14326;SDS011;7247;53.330;-1.180;2023-07-28T01:21:41;16.27;;;11.33;;
14326;SDS011;7247;53.330;-1.180;2023-07-28T01:24:12;15.73;;;13.63;;
14326;SDS011;7247;53.330;-1.180;2023-07-28T01:26:43;27.20;;;20.40;;
14326;SDS011;7247;53.330;-1.180;2023-07-28T01:29:09;35.63;;;31.77;;
14326;SDS011;7247;53.330;-1.180;2023-07-28T01:31:37;68.77;;;61.33;;
14326;SDS011;7247;53.330;-1.180;2023-07-28T01:34:05;36.43;;;30.33;;
14326;SDS011;7247;53.330;-1.180;2023-07-28T01:36:31;16.30;;;13.07;;
14326;SDS011;7247;53.330;-1.180;2023-07-28T01:38:58;8.37;;;7.47;;
14326;SDS011;7247;53.330;-1.180;2023-07-28T01:41:24;9.40;;;7.00;;
14326;SDS011;7247;53.330;-1.180;2023-07-28T01:43:52;8.27;;;6.83;;
14326;SDS011;7247;53.330;-1.180;2023-07-28T01:46:20;8.20;;;6.57;;
14326;SDS011;7247;53.330;-1.180;2023-07-28T01:48:47;7.77;;;6.17;;
14326;SDS011;7247;53.330;-1.180;2023-07-28T01:51:13;10.87;;;6.13;;
14326;SDS011;7247;53.330;-1.180;2023-07-28T01:53:39;9.57;;;6.63;;
14326;SDS011;7247;53.330;-1.180;2023-07-28T01:56:06;8.23;;;5.97;;
14326;SDS011;7247;53.330;-1.180;2023-07-28T01:58:32;10.57;;;6.43;;
14326;SDS011;7247;53.330;-1.180;2023-07-28T02:01:00;8.87;;;6.70;;
14326;SDS011;7247;53.330;-1.180;2023-07-28T02:03:26;10.73;;;6.13;;
14326;SDS011;7247;53.330;-1.180;2023-07-28T02:05:53;8.90;;;6.70;;
14326;SDS011;7247;53.330;-1.180;2023-07-28T02:08:19;7.00;;;6.30;;
14326;SDS011;7247;53.330;-1.180;2023-07-28T02:10:46;8.17;;;6.23;;
14326;SDS011;7247;53.330;-1.180;2023-07-28T02:13:12;8.63;;;6.17;;
14326;SDS011;7247;53.330;-1.180;2023-07-28T02:15:39;10.07;;;5.97;;
14326;SDS011;7247;53.330;-1.180;2023-07-28T02:18:06;7.07;;;5.40;;
14326;SDS011;7247;53.330;-1.180;2023-07-28T02:20:33;7.67;;;5.60;;
14326;SDS011;7247;53.330;-1.180;2023-07-28T02:23:00;37.93;;;30.17;;
14326;SDS011;7247;53.330;-1.180;2023-07-28T02:25:27;79.30;;;63.23;;
14326;SDS011;7247;53.330;-1.180;2023-07-28T02:27:53;141.37;;;102.90;;
14326;SDS011;7247;53.330;-1.180;2023-07-28T02:30:20;56.50;;;43.60;;
14326;SDS011;7247;53.330;-1.180;2023-07-28T02:32:46;43.87;;;34.00;;
14326;SDS011;7247;53.330;-1.180;2023-07-28T02:35:14;55.07;;;40.17;;
14326;SDS011;7247;53.330;-1.180;2023-07-28T02:37:40;25.57;;;20.17;;
14326;SDS011;7247;53.330;-1.180;2023-07-28T02:40:08;34.63;;;25.60;;
14326;SDS011;7247;53.330;-1.180;2023-07-28T02:42:34;31.83;;;24.73;;
14326;SDS011;7247;53.330;-1.180;2023-07-28T02:45:01;27.07;;;20.93;;
14326;SDS011;7247;53.330;-1.180;2023-07-28T02:47:27;44.60;;;31.97;;
14326;SDS011;7247;53.330;-1.180;2023-07-28T02:49:54;34.53;;;24.87;;
14326;SDS011;7247;53.330;-1.180;2023-07-28T02:52:22;25.10;;;19.83;;
14326;SDS011;7247;53.330;-1.180;2023-07-28T02:54:48;24.47;;;17.00;;
14326;SDS011;7247;53.330;-1.180;2023-07-28T02:57:15;17.87;;;12.83;;
14326;SDS011;7247;53.330;-1.180;2023-07-28T02:59:41;13.03;;;8.60;;
14326;SDS011;7247;53.330;-1.180;2023-07-28T03:02:08;8.40;;;6.00;;
14326;SDS011;7247;53.330;-1.180;2023-07-28T03:04:34;10.43;;;5.93;;
14326;SDS011;7247;53.330;-1.180;2023-07-28T03:07:01;6.47;;;5.47;;
14326;SDS011;7247;53.330;-1.180;2023-07-28T03:09:28;10.20;;;5.70;;
14326;SDS011;7247;53.330;-1.180;2023-07-28T03:11:55;8.47;;;5.27;;
14326;SDS011;7247;53.330;-1.180;2023-07-28T03:14:21;10.87;;;5.60;;
14326;SDS011;7247;53.330;-1.180;2023-07-28T03:16:48;6.83;;;5.13;;
14326;SDS011;7247;53.330;-1.180;2023-07-28T03:19:14;7.10;;;5.70;;
14326;SDS011;7247;53.330;-1.180;2023-07-28T03:21:42;6.87;;;5.17;;
14326;SDS011;7247;53.330;-1.180;2023-07-28T03:24:09;8.17;;;5.27;;
14326;SDS011;7247;53.330;-1.180;2023-07-28T03:26:36;7.40;;;5.03;;
14326;SDS011;7247;53.330;-1.180;2023-07-28T03:29:03;7.73;;;5.47;;
14326;SDS011;7247;53.330;-1.180;2023-07-28T03:31:29;6.90;;;5.03;;
14326;SDS011;7247;53.330;-1.180;2023-07-28T03:33:56;7.93;;;5.10;;
14326;SDS011;7247;53.330;-1.180;2023-07-28T03:36:22;6.20;;;4.87;;
14326;SDS011;7247;53.330;-1.180;2023-07-28T03:38:48;6.83;;;5.53;;
14326;SDS011;7247;53.330;-1.180;2023-07-28T03:41:15;6.77;;;5.37;;
14326;SDS011;7247;53.330;-1.180;2023-07-28T03:43:43;8.90;;;5.63;;
14326;SDS011;7247;53.330;-1.180;2023-07-28T03:46:09;9.13;;;6.20;;
14326;SDS011;7247;53.330;-1.180;2023-07-28T03:48:35;10.30;;;7.20;;
14326;SDS011;7247;53.330;-1.180;2023-07-28T03:51:02;10.93;;;7.20;;
14326;SDS011;7247;53.330;-1.180;2023-07-28T03:53:28;15.43;;;9.07;;
14326;SDS011;7247;53.330;-1.180;2023-07-28T03:55:55;15.77;;;11.33;;
14326;SDS011;7247;53.330;-1.180;2023-07-28T03:58:23;19.43;;;11.57;;
14326;SDS011;7247;53.330;-1.180;2023-07-28T04:00:51;18.03;;;13.57;;
14326;SDS011;7247;53.330;-1.180;2023-07-28T04:03:17;48.37;;;30.83;;
14326;SDS011;7247;53.330;-1.180;2023-07-28T04:05:43;41.80;;;26.73;;
14326;SDS011;7247;53.330;-1.180;2023-07-28T04:08:10;34.53;;;23.53;;
14326;SDS011;7247;53.330;-1.180;2023-07-28T04:10:36;32.27;;;22.60;;
14326;SDS011;7247;53.330;-1.180;2023-07-28T04:13:03;35.67;;;20.67;;
14326;SDS011;7247;53.330;-1.180;2023-07-28T04:15:29;32.80;;;21.93;;
14326;SDS011;7247;53.330;-1.180;2023-07-28T04:17:57;37.80;;;24.73;;
14326;SDS011;7247;53.330;-1.180;2023-07-28T04:20:23;36.57;;;24.97;;
14326;SDS011;7247;53.330;-1.180;2023-07-28T04:22:50;40.73;;;26.10;;
14326;SDS011;7247;53.330;-1.180;2023-07-28T04:25:16;44.57;;;26.63;;
14326;SDS011;7247;53.330;-1.180;2023-07-28T04:27:42;40.47;;;26.90;;
14326;SDS011;7247;53.330;-1.180;2023-07-28T04:30:09;46.83;;;28.57;;
14326;SDS011;7247;53.330;-1.180;2023-07-28T04:32:36;38.83;;;26.77;;
14326;SDS011;7247;53.330;-1.180;2023-07-28T04:35:04;42.27;;;27.07;;
14326;SDS011;7247;53.330;-1.180;2023-07-28T04:37:31;37.03;;;24.03;;
14326;SDS011;7247;53.330;-1.180;2023-07-28T04:39:57;37.90;;;23.93;;
14326;SDS011;7247;53.330;-1.180;2023-07-28T04:42:24;30.00;;;20.27;;
14326;SDS011;7247;53.330;-1.180;2023-07-28T04:44:50;24.57;;;16.30;;
14326;SDS011;7247;53.330;-1.180;2023-07-28T04:47:17;20.77;;;14.43;;
14326;SDS011;7247;53.330;-1.180;2023-07-28T04:49:43;14.73;;;11.30;;
14326;SDS011;7247;53.330;-1.180;2023-07-28T04:52:11;14.43;;;10.47;;
14326;SDS011;7247;53.330;-1.180;2023-07-28T04:54:37;15.17;;;9.57;;
14326;SDS011;7247;53.330;-1.180;2023-07-28T04:57:04;11.70;;;7.50;;
14326;SDS011;7247;53.330;-1.180;2023-07-28T04:59:30;13.33;;;8.53;;
14326;SDS011;7247;53.330;-1.180;2023-07-28T05:01:57;11.17;;;7.30;;
14326;SDS011;7247;53.330;-1.180;2023-07-28T05:04:23;11.57;;;6.87;;
14326;SDS011;7247;53.330;-1.180;2023-07-28T05:06:50;10.07;;;6.23;;
14326;SDS011;7247;53.330;-1.180;2023-07-28T05:09:17;10.70;;;6.50;;
14326;SDS011;7247;53.330;-1.180;2023-07-28T05:11:44;9.67;;;6.00;;
14326;SDS011;7247;53.330;-1.180;2023-07-28T05:14:10;7.60;;;5.50;;
14326;SDS011;7247;53.330;-1.180;2023-07-28T05:16:37;8.40;;;5.80;;
14326;SDS011;7247;53.330;-1.180;2023-07-28T05:19:06;6.13;;;5.20;;
14326;SDS011;7247;53.330;-1.180;2023-07-28T05:21:33;7.80;;;4.97;;
14326;SDS011;7247;53.330;-1.180;2023-07-28T05:24:00;7.00;;;4.90;;
14326;SDS011;7247;53.330;-1.180;2023-07-28T05:26:27;8.10;;;5.00;;
14326;SDS011;7247;53.330;-1.180;2023-07-28T05:28:54;5.67;;;5.17;;
14326;SDS011;7247;53.330;-1.180;2023-07-28T05:31:20;7.67;;;6.30;;
14326;SDS011;7247;53.330;-1.180;2023-07-28T05:33:47;10.50;;;7.97;;
14326;SDS011;7247;53.330;-1.180;2023-07-28T05:36:14;11.27;;;7.57;;
14326;SDS011;7247;53.330;-1.180;2023-07-28T05:38:40;7.73;;;6.20;;
14326;SDS011;7247;53.330;-1.180;2023-07-28T05:41:07;8.30;;;5.47;;
14326;SDS011;7247;53.330;-1.180;2023-07-28T05:43:35;8.17;;;5.20;;
14326;SDS011;7247;53.330;-1.180;2023-07-28T05:46:01;6.37;;;4.83;;
14326;SDS011;7247;53.330;-1.180;2023-07-28T05:48:28;5.23;;;4.73;;
14326;SDS011;7247;53.330;-1.180;2023-07-28T05:50:54;6.07;;;4.90;;
14326;SDS011;7247;53.330;-1.180;2023-07-28T05:53:21;5.97;;;4.60;;
14326;SDS011;7247;53.330;-1.180;2023-07-28T05:55:47;5.27;;;4.63;;
14326;SDS011;7247;53.330;-1.180;2023-07-28T05:58:14;5.70;;;5.13;;
14326;SDS011;7247;53.330;-1.180;2023-07-28T06:00:42;6.63;;;5.70;;
14326;SDS011;7247;53.330;-1.180;2023-07-28T06:03:09;6.87;;;5.73;;
14326;SDS011;7247;53.330;-1.180;2023-07-28T06:05:36;6.30;;;5.70;;
14326;SDS011;7247;53.330;-1.180;2023-07-28T06:08:03;6.93;;;5.67;;
14326;SDS011;7247;53.330;-1.180;2023-07-28T06:10:30;8.93;;;6.17;;
14326;SDS011;7247;53.330;-1.180;2023-07-28T06:12:56;7.60;;;6.00;;
14326;SDS011;7247;53.330;-1.180;2023-07-28T06:15:23;9.30;;;6.00;;
14326;SDS011;7247;53.330;-1.180;2023-07-28T06:17:50;8.30;;;6.80;;
14326;SDS011;7247;53.330;-1.180;2023-07-28T06:20:17;9.60;;;7.30;;
14326;SDS011;7247;53.330;-1.180;2023-07-28T06:22:44;9.47;;;7.30;;
14326;SDS011;7247;53.330;-1.180;2023-07-28T06:25:10;11.00;;;8.13;;
14326;SDS011;7247;53.330;-1.180;2023-07-28T06:27:36;10.93;;;8.30;;
14326;SDS011;7247;53.330;-1.180;2023-07-28T06:30:04;12.07;;;8.77;;
14326;SDS011;7247;53.330;-1.180;2023-07-28T06:32:30;10.77;;;8.97;;
14326;SDS011;7247;53.330;-1.180;2023-07-28T06:34:58;8.83;;;7.80;;
14326;SDS011;7247;53.330;-1.180;2023-07-28T06:37:24;9.73;;;7.20;;
14326;SDS011;7247;53.330;-1.180;2023-07-28T06:39:51;6.73;;;5.70;;
14326;SDS011;7247;53.330;-1.180;2023-07-28T06:42:17;5.87;;;5.17;;
14326;SDS011;7247;53.330;-1.180;2023-07-28T06:44:48;5.50;;;5.00;;
14326;SDS011;7247;53.330;-1.180;2023-07-28T06:47:15;6.17;;;5.67;;
14326;SDS011;7247;53.330;-1.180;2023-07-28T06:49:41;5.90;;;5.10;;
14326;SDS011;7247;53.330;-1.180;2023-07-28T06:52:09;5.43;;;4.93;;
14326;SDS011;7247;53.330;-1.180;2023-07-28T06:54:36;5.70;;;5.10;;
14326;SDS011;7247;53.330;-1.180;2023-07-28T06:57:04;7.60;;;6.57;;
14326;SDS011;7247;53.330;-1.180;2023-07-28T06:59:31;8.43;;;6.73;;
14326;SDS011;7247;53.330;-1.180;2023-07-28T07:01:58;7.87;;;6.03;;
14326;SDS011;7247;53.330;-1.180;2023-07-28T07:04:24;5.90;;;5.30;;
14326;SDS011;7247;53.330;-1.180;2023-07-28T07:06:50;6.63;;;5.53;;
14326;SDS011;7247;53.330;-1.180;2023-07-28T07:09:18;6.03;;;5.33;;
14326;SDS011;7247;53.330;-1.180;2023-07-28T07:11:45;5.33;;;4.83;;
14326;SDS011;7247;53.330;-1.180;2023-07-28T07:14:11;5.97;;;5.10;;
14326;SDS011;7247;53.330;-1.180;2023-07-28T07:16:39;5.17;;;4.67;;
14326;SDS011;7247;53.330;-1.180;2023-07-28T07:19:06;5.37;;;4.53;;
14326;SDS011;7247;53.330;-1.180;2023-07-28T07:21:32;5.40;;;4.33;;
14326;SDS011;7247;53.330;-1.180;2023-07-28T07:23:58;5.57;;;4.77;;
14326;SDS011;7247;53.330;-1.180;2023-07-28T07:26:26;5.53;;;4.43;;
14326;SDS011;7247;53.330;-1.180;2023-07-28T07:28:53;6.77;;;4.83;;
14326;SDS011;7247;53.330;-1.180;2023-07-28T07:31:19;6.50;;;5.20;;
14326;SDS011;7247;53.330;-1.180;2023-07-28T07:33:46;4.40;;;4.00;;
14326;SDS011;7247;53.330;-1.180;2023-07-28T07:36:12;3.90;;;3.50;;
14326;SDS011;7247;53.330;-1.180;2023-07-28T07:38:39;3.93;;;3.53;;
14326;SDS011;7247;53.330;-1.180;2023-07-28T07:41:06;4.20;;;3.47;;
14326;SDS011;7247;53.330;-1.180;2023-07-28T07:43:34;4.27;;;3.70;;
14326;SDS011;7247;53.330;-1.180;2023-07-28T07:46:01;3.97;;;3.57;;
14326;SDS011;7247;53.330;-1.180;2023-07-28T07:48:27;3.97;;;3.60;;
14326;SDS011;7247;53.330;-1.180;2023-07-28T07:50:54;4.07;;;3.67;;
14326;SDS011;7247;53.330;-1.180;2023-07-28T07:53:20;5.70;;;3.83;;
14326;SDS011;7247;53.330;-1.180;2023-07-28T07:55:47;3.87;;;3.47;;
14326;SDS011;7247;53.330;-1.180;2023-07-28T07:58:14;4.40;;;3.10;;
14326;SDS011;7247;53.330;-1.180;2023-07-28T08:00:41;3.20;;;3.00;;
14326;SDS011;7247;53.330;-1.180;2023-07-28T08:03:09;3.53;;;3.23;;
14326;SDS011;7247;53.330;-1.180;2023-07-28T08:05:35;3.97;;;3.23;;
14326;SDS011;7247;53.330;-1.180;2023-07-28T08:08:02;4.77;;;3.10;;
14326;SDS011;7247;53.330;-1.180;2023-07-28T08:10:30;4.30;;;3.87;;
14326;SDS011;7247;53.330;-1.180;2023-07-28T08:12:57;4.47;;;3.70;;
14326;SDS011;7247;53.330;-1.180;2023-07-28T08:15:24;4.93;;;3.53;;
14326;SDS011;7247;53.330;-1.180;2023-07-28T08:17:52;4.67;;;2.97;;
14326;SDS011;7247;53.330;-1.180;2023-07-28T08:20:19;3.13;;;2.83;;
14326;SDS011;7247;53.330;-1.180;2023-07-28T08:22:45;3.83;;;2.80;;
14326;SDS011;7247;53.330;-1.180;2023-07-28T08:25:12;4.37;;;2.97;;
14326;SDS011;7247;53.330;-1.180;2023-07-28T08:27:38;3.27;;;2.70;;
14326;SDS011;7247;53.330;-1.180;2023-07-28T08:30:05;5.67;;;3.20;;
14326;SDS011;7247;53.330;-1.180;2023-07-28T08:32:31;3.67;;;2.70;;
14326;SDS011;7247;53.330;-1.180;2023-07-28T08:35:00;4.73;;;3.00;;
14326;SDS011;7247;53.330;-1.180;2023-07-28T08:37:27;4.20;;;2.60;;
14326;SDS011;7247;53.330;-1.180;2023-07-28T08:39:54;3.50;;;2.80;;
14326;SDS011;7247;53.330;-1.180;2023-07-28T08:42:21;4.50;;;2.53;;
14326;SDS011;7247;53.330;-1.180;2023-07-28T08:44:47;3.93;;;2.60;;
14326;SDS011;7247;53.330;-1.180;2023-07-28T08:47:17;2.70;;;2.50;;
14326;SDS011;7247;53.330;-1.180;2023-07-28T08:49:43;3.60;;;2.70;;
14326;SDS011;7247;53.330;-1.180;2023-07-28T08:52:13;3.27;;;2.47;;
14326;SDS011;7247;53.330;-1.180;2023-07-28T08:54:40;2.70;;;2.50;;
14326;SDS011;7247;53.330;-1.180;2023-07-28T08:57:07;2.57;;;2.30;;
14326;SDS011;7247;53.330;-1.180;2023-07-28T08:59:34;2.80;;;2.30;;
14326;SDS011;7247;53.330;-1.180;2023-07-28T09:02:01;2.63;;;2.43;;
14326;SDS011;7247;53.330;-1.180;2023-07-28T09:04:29;2.60;;;2.40;;
14326;SDS011;7247;53.330;-1.180;2023-07-28T09:06:56;3.30;;;2.77;;
14326;SDS011;7247;53.330;-1.180;2023-07-28T09:09:24;2.43;;;2.23;;
14326;SDS011;7247;53.330;-1.180;2023-07-28T09:11:51;4.43;;;2.50;;
14326;SDS011;7247;53.330;-1.180;2023-07-28T09:14:18;3.70;;;2.07;;
14326;SDS011;7247;53.330;-1.180;2023-07-28T09:16:46;2.57;;;2.37;;
14326;SDS011;7247;53.330;-1.180;2023-07-28T09:19:15;3.47;;;2.30;;
14326;SDS011;7247;53.330;-1.180;2023-07-28T09:21:43;3.10;;;2.80;;
14326;SDS011;7247;53.330;-1.180;2023-07-28T09:24:11;2.03;;;1.93;;
14326;SDS011;7247;53.330;-1.180;2023-07-28T09:26:40;2.50;;;2.30;;
14326;SDS011;7247;53.330;-1.180;2023-07-28T09:29:13;4.23;;;2.40;;
14326;SDS011;7247;53.330;-1.180;2023-07-28T09:31:40;5.30;;;2.20;;
14326;SDS011;7247;53.330;-1.180;2023-07-28T09:34:06;3.00;;;2.67;;
14326;SDS011;7247;53.330;-1.180;2023-07-28T09:36:33;2.50;;;2.30;;
14326;SDS011;7247;53.330;-1.180;2023-07-28T09:39:00;3.27;;;2.53;;
14326;SDS011;7247;53.330;-1.180;2023-07-28T09:41:28;2.30;;;2.10;;
14326;SDS011;7247;53.330;-1.180;2023-07-28T09:43:56;3.00;;;2.43;;
14326;SDS011;7247;53.330;-1.180;2023-07-28T09:46:23;2.00;;;1.83;;
14326;SDS011;7247;53.330;-1.180;2023-07-28T09:48:51;2.30;;;1.80;;
14326;SDS011;7247;53.330;-1.180;2023-07-28T09:51:18;2.33;;;2.07;;
14326;SDS011;7247;53.330;-1.180;2023-07-28T09:53:48;2.13;;;1.70;;
14326;SDS011;7247;53.330;-1.180;2023-07-28T09:56:15;2.33;;;1.97;;
14326;SDS011;7247;53.330;-1.180;2023-07-28T09:58:44;1.90;;;1.80;;
14326;SDS011;7247;53.330;-1.180;2023-07-28T10:01:16;1.80;;;1.70;;
14326;SDS011;7247;53.330;-1.180;2023-07-28T10:03:43;2.13;;;1.93;;
14326;SDS011;7247;53.330;-1.180;2023-07-28T10:06:09;1.97;;;1.80;;
14326;SDS011;7247;53.330;-1.180;2023-07-28T10:08:36;3.17;;;1.83;;
14326;SDS011;7247;53.330;-1.180;2023-07-28T10:11:03;3.60;;;1.90;;
14326;SDS011;7247;53.330;-1.180;2023-07-28T10:13:33;2.77;;;1.80;;
14326;SDS011;7247;53.330;-1.180;2023-07-28T10:16:05;3.20;;;1.57;;
14326;SDS011;7247;53.330;-1.180;2023-07-28T10:18:34;1.50;;;1.40;;
14326;SDS011;7247;53.330;-1.180;2023-07-28T10:21:04;1.47;;;1.37;;
14326;SDS011;7247;53.330;-1.180;2023-07-28T10:23:32;1.53;;;1.27;;
14326;SDS011;7247;53.330;-1.180;2023-07-28T10:26:00;1.43;;;1.30;;
14326;SDS011;7247;53.330;-1.180;2023-07-28T10:28:27;1.57;;;1.47;;
14326;SDS011;7247;53.330;-1.180;2023-07-28T10:30:54;1.70;;;1.60;;
14326;SDS011;7247;53.330;-1.180;2023-07-28T10:33:28;1.30;;;1.20;;
14326;SDS011;7247;53.330;-1.180;2023-07-28T10:35:57;1.40;;;1.30;;
14326;SDS011;7247;53.330;-1.180;2023-07-28T10:38:33;2.87;;;1.43;;
14326;SDS011;7247;53.330;-1.180;2023-07-28T10:41:07;1.87;;;1.30;;
14326;SDS011;7247;53.330;-1.180;2023-07-28T10:43:34;1.47;;;1.37;;
14326;SDS011;7247;53.330;-1.180;2023-07-28T10:46:01;2.60;;;1.70;;
14326;SDS011;7247;53.330;-1.180;2023-07-28T10:48:27;3.03;;;1.60;;
14326;SDS011;7247;53.330;-1.180;2023-07-28T10:50:53;1.40;;;1.30;;
14326;SDS011;7247;53.330;-1.180;2023-07-28T10:53:21;1.50;;;1.40;;
14326;SDS011;7247;53.330;-1.180;2023-07-28T10:55:48;2.23;;;1.40;;
14326;SDS011;7247;53.330;-1.180;2023-07-28T10:58:14;1.87;;;1.43;;
14326;SDS011;7247;53.330;-1.180;2023-07-28T11:00:41;1.60;;;1.50;;
14326;SDS011;7247;53.330;-1.180;2023-07-28T11:03:07;3.00;;;2.17;;
14326;SDS011;7247;53.330;-1.180;2023-07-28T11:05:34;4.00;;;2.47;;
14326;SDS011;7247;53.330;-1.180;2023-07-28T11:08:01;3.40;;;1.40;;
14326;SDS011;7247;53.330;-1.180;2023-07-28T11:10:29;2.27;;;1.30;;
14326;SDS011;7247;53.330;-1.180;2023-07-28T11:12:57;2.00;;;1.50;;
14326;SDS011;7247;53.330;-1.180;2023-07-28T11:15:24;2.30;;;1.40;;
14326;SDS011;7247;53.330;-1.180;2023-07-28T11:17:51;2.00;;;1.37;;
14326;SDS011;7247;53.330;-1.180;2023-07-28T11:20:18;1.63;;;1.40;;
14326;SDS011;7247;53.330;-1.180;2023-07-28T11:22:45;2.07;;;1.20;;
14326;SDS011;7247;53.330;-1.180;2023-07-28T11:25:12;4.40;;;1.40;;
14326;SDS011;7247;53.330;-1.180;2023-07-28T11:27:40;1.87;;;1.20;;
14326;SDS011;7247;53.330;-1.180;2023-07-28T11:30:07;3.43;;;1.40;;
14326;SDS011;7247;53.330;-1.180;2023-07-28T11:32:34;1.53;;;1.30;;
14326;SDS011;7247;53.330;-1.180;2023-07-28T11:35:04;2.10;;;1.20;;
14326;SDS011;7247;53.330;-1.180;2023-07-28T11:37:31;1.30;;;1.20;;
14326;SDS011;7247;53.330;-1.180;2023-07-28T11:39:59;3.83;;;1.60;;
14326;SDS011;7247;53.330;-1.180;2023-07-28T11:42:26;1.70;;;1.50;;
14326;SDS011;7247;53.330;-1.180;2023-07-28T11:44:53;2.90;;;1.50;;
14326;SDS011;7247;53.330;-1.180;2023-07-28T11:47:20;1.43;;;1.33;;
14326;SDS011;7247;53.330;-1.180;2023-07-28T11:49:47;3.10;;;1.53;;
14326;SDS011;7247;53.330;-1.180;2023-07-28T11:52:13;1.63;;;1.50;;
14326;SDS011;7247;53.330;-1.180;2023-07-28T11:54:40;2.93;;;1.50;;
14326;SDS011;7247;53.330;-1.180;2023-07-28T11:57:07;1.80;;;1.63;;
14326;SDS011;7247;53.330;-1.180;2023-07-28T11:59:34;1.60;;;1.50;;
14326;SDS011;7247;53.330;-1.180;2023-07-28T12:02:02;1.97;;;1.50;;
14326;SDS011;7247;53.330;-1.180;2023-07-28T12:04:30;1.90;;;1.70;;
14326;SDS011;7247;53.330;-1.180;2023-07-28T12:07:00;1.50;;;1.40;;
14326;SDS011;7247;53.330;-1.180;2023-07-28T12:09:27;1.97;;;1.63;;
14326;SDS011;7247;53.330;-1.180;2023-07-28T12:11:54;2.07;;;1.50;;
14326;SDS011;7247;53.330;-1.180;2023-07-28T12:14:29;2.53;;;1.87;;
14326;SDS011;7247;53.330;-1.180;2023-07-28T12:16:56;2.87;;;1.77;;
14326;SDS011;7247;53.330;-1.180;2023-07-28T12:19:24;2.37;;;1.60;;
14326;SDS011;7247;53.330;-1.180;2023-07-28T12:21:50;1.60;;;1.40;;
14326;SDS011;7247;53.330;-1.180;2023-07-28T12:24:16;2.40;;;1.60;;
14326;SDS011;7247;53.330;-1.180;2023-07-28T12:26:43;2.53;;;2.00;;
14326;SDS011;7247;53.330;-1.180;2023-07-28T12:29:11;3.63;;;1.70;;
14326;SDS011;7247;53.330;-1.180;2023-07-28T12:31:37;2.03;;;1.60;;
14326;SDS011;7247;53.330;-1.180;2023-07-28T12:34:04;2.33;;;1.40;;
14326;SDS011;7247;53.330;-1.180;2023-07-28T12:36:31;2.17;;;1.90;;
14326;SDS011;7247;53.330;-1.180;2023-07-28T12:38:59;2.00;;;1.80;;
14326;SDS011;7247;53.330;-1.180;2023-07-28T12:41:25;3.50;;;1.80;;
14326;SDS011;7247;53.330;-1.180;2023-07-28T12:43:51;1.80;;;1.67;;
14326;SDS011;7247;53.330;-1.180;2023-07-28T12:46:18;3.00;;;1.80;;
14326;SDS011;7247;53.330;-1.180;2023-07-28T12:48:44;1.40;;;1.30;;
14326;SDS011;7247;53.330;-1.180;2023-07-28T12:51:11;1.53;;;1.43;;
14326;SDS011;7247;53.330;-1.180;2023-07-28T12:53:38;1.97;;;1.43;;
14326;SDS011;7247;53.330;-1.180;2023-07-28T12:56:05;2.20;;;1.47;;
14326;SDS011;7247;53.330;-1.180;2023-07-28T12:58:31;2.17;;;1.50;;
14326;SDS011;7247;53.330;-1.180;2023-07-28T13:00:58;5.63;;;1.60;;
14326;SDS011;7247;53.330;-1.180;2023-07-28T13:03:26;1.50;;;1.40;;
14326;SDS011;7247;53.330;-1.180;2023-07-28T13:05:53;2.22;;;1.42;;
14326;SDS011;7247;53.330;-1.180;2023-07-28T13:08:19;1.95;;;1.40;;
14326;SDS011;7247;53.330;-1.180;2023-07-28T13:10:47;2.35;;;1.60;;
14326;SDS011;7247;53.330;-1.180;2023-07-28T13:13:13;1.42;;;1.33;;
14326;SDS011;7247;53.330;-1.180;2023-07-28T13:15:40;1.70;;;1.35;;
14326;SDS011;7247;53.330;-1.180;2023-07-28T13:18:06;9.18;;;5.50;;
14326;SDS011;7247;53.330;-1.180;2023-07-28T13:20:33;5.50;;;4.18;;
14326;SDS011;7247;53.330;-1.180;2023-07-28T13:22:59;4.03;;;3.15;;
14326;SDS011;7247;53.330;-1.180;2023-07-28T13:25:25;6.18;;;4.55;;
14326;SDS011;7247;53.330;-1.180;2023-07-28T13:27:53;1.63;;;1.45;;
14326;SDS011;7247;53.330;-1.180;2023-07-28T13:30:20;12.45;;;7.35;;
14326;SDS011;7247;53.330;-1.180;2023-07-28T13:32:46;2.95;;;1.77;;
14326;SDS011;7247;53.330;-1.180;2023-07-28T13:35:13;1.92;;;1.73;;
14326;SDS011;7247;53.330;-1.180;2023-07-28T13:37:40;1.92;;;1.50;;
14326;SDS011;7247;53.330;-1.180;2023-07-28T13:40:06;2.28;;;1.50;;
14326;SDS011;7247;53.330;-1.180;2023-07-28T13:42:33;2.67;;;1.88;;
14326;SDS011;7247;53.330;-1.180;2023-07-28T13:45:01;3.73;;;2.97;;
14326;SDS011;7247;53.330;-1.180;2023-07-28T13:47:27;3.00;;;2.00;;
14326;SDS011;7247;53.330;-1.180;2023-07-28T13:49:54;2.70;;;1.80;;
14326;SDS011;7247;53.330;-1.180;2023-07-28T13:52:20;1.70;;;1.57;;
14326;SDS011;7247;53.330;-1.180;2023-07-28T13:54:47;4.03;;;2.20;;
14326;SDS011;7247;53.330;-1.180;2023-07-28T13:57:13;3.27;;;2.10;;
14326;SDS011;7247;53.330;-1.180;2023-07-28T13:59:40;9.13;;;5.67;;
14326;SDS011;7247;53.330;-1.180;2023-07-28T14:02:07;3.33;;;1.80;;
14326;SDS011;7247;53.330;-1.180;2023-07-28T14:04:34;2.40;;;1.90;;
14326;SDS011;7247;53.330;-1.180;2023-07-28T14:07:00;2.73;;;2.00;;
14326;SDS011;7247;53.330;-1.180;2023-07-28T14:09:27;2.70;;;2.00;;
14326;SDS011;7247;53.330;-1.180;2023-07-28T14:11:53;2.43;;;2.00;;
14326;SDS011;7247;53.330;-1.180;2023-07-28T14:14:19;3.08;;;2.20;;
14326;SDS011;7247;53.330;-1.180;2023-07-28T14:16:46;2.20;;;1.95;;
14326;SDS011;7247;53.330;-1.180;2023-07-28T14:19:14;2.50;;;1.90;;
14326;SDS011;7247;53.330;-1.180;2023-07-28T14:21:40;2.27;;;2.00;;
14326;SDS011;7247;53.330;-1.180;2023-07-28T14:24:06;2.83;;;2.00;;
14326;SDS011;7247;53.330;-1.180;2023-07-28T14:26:33;2.08;;;1.88;;
14326;SDS011;7247;53.330;-1.180;2023-07-28T14:28:59;4.00;;;2.20;;
14326;SDS011;7247;53.330;-1.180;2023-07-28T14:31:26;4.03;;;1.85;;
14326;SDS011;7247;53.330;-1.180;2023-07-28T14:33:52;1.98;;;1.77;;
14326;SDS011;7247;53.330;-1.180;2023-07-28T14:36:20;2.03;;;1.70;;
14326;SDS011;7247;53.330;-1.180;2023-07-28T14:38:47;1.83;;;1.73;;
14326;SDS011;7247;53.330;-1.180;2023-07-28T14:41:13;1.90;;;1.80;;